createdAt,value
2023-04-20T03:01:12.713Z,2.70
2023-04-20T03:03:41.922Z,2.95
2023-04-20T03:06:12.844Z,3.00
2023-04-20T03:08:44.259Z,2.88
2023-04-20T03:11:31.987Z,2.92
2023-04-20T03:14:00.487Z,3.03
2023-04-20T03:16:30.294Z,2.70
2023-04-20T03:18:59.406Z,2.72
2023-04-20T03:21:27.383Z,3.00
2023-04-20T03:23:55.260Z,3.22
2023-04-20T03:26:30.715Z,3.03
2023-04-20T03:29:17.211Z,3.20
2023-04-20T03:31:47.582Z,3.08
2023-04-20T03:34:15.743Z,3.20
2023-04-20T03:36:45.359Z,3.10
2023-04-20T03:39:13.222Z,3.40
2023-04-20T03:41:41.283Z,3.05
2023-04-20T03:44:09.094Z,3.22
2023-04-20T03:46:38.255Z,3.00
2023-04-20T03:49:07.566Z,3.20
2023-04-20T03:51:35.694Z,2.72
2023-04-20T03:54:03.509Z,2.80
2023-04-20T03:56:31.651Z,3.17
2023-04-20T03:58:59.788Z,3.28
2023-04-20T04:01:28.887Z,3.17
2023-04-20T04:03:57.875Z,3.27
2023-04-20T04:06:27.351Z,3.15
2023-04-20T04:08:55.454Z,3.13
2023-04-20T04:11:23.318Z,3.15
2023-04-20T04:13:51.199Z,3.38
2023-04-20T04:16:19.616Z,3.33
2023-04-20T04:18:48.964Z,3.45
2023-04-20T04:21:16.827Z,3.40
2023-04-20T04:23:52.810Z,3.40
2023-04-20T04:26:34.328Z,3.47
2023-04-20T04:29:04.762Z,3.50
2023-04-20T04:31:34.921Z,3.88
2023-04-20T04:34:09.100Z,3.75
2023-04-20T04:36:44.215Z,3.88
2023-04-20T04:39:16.399Z,3.80
2023-04-20T04:41:53.105Z,3.90
2023-04-20T04:44:31.412Z,4.17
2023-04-20T04:47:00.311Z,4.23
2023-04-20T04:49:29.231Z,4.10
2023-04-20T04:51:57.005Z,4.20
2023-04-20T04:54:26.106Z,4.03
2023-04-20T04:56:53.872Z,4.13
2023-04-20T04:59:21.659Z,3.87
2023-04-20T05:01:49.426Z,4.28
2023-04-20T05:04:17.348Z,4.20
2023-04-20T05:06:45.288Z,4.50
2023-04-20T05:09:13.088Z,4.28
2023-04-20T05:11:42.195Z,4.60
2023-04-20T05:14:09.999Z,4.37
2023-04-20T05:16:37.983Z,4.60
2023-04-20T05:19:05.866Z,4.40
2023-04-20T05:21:33.634Z,4.38
2023-04-20T05:24:01.400Z,4.47
2023-04-20T05:26:29.166Z,4.50
2023-04-20T05:28:58.265Z,4.27
2023-04-20T05:31:26.329Z,4.30
2023-04-20T05:33:54.214Z,4.50
2023-04-20T05:36:21.988Z,4.50
2023-04-20T05:38:49.991Z,4.47
2023-04-20T05:41:17.825Z,4.37
2023-04-20T05:43:45.605Z,4.63
2023-04-20T05:46:14.727Z,4.63
2023-04-20T05:48:42.486Z,4.57
2023-04-20T05:51:10.245Z,5.13
2023-04-20T05:53:38.025Z,4.35
2023-04-20T05:56:06.924Z,4.25
2023-04-20T05:58:37.387Z,4.30
2023-04-20T06:01:05.325Z,4.30
2023-04-20T06:03:34.594Z,4.03
2023-04-20T06:06:02.549Z,4.00
2023-04-20T06:08:30.385Z,4.28
2023-04-20T06:10:58.603Z,4.15
2023-04-20T06:13:26.473Z,4.03
2023-04-20T06:15:54.439Z,3.50
2023-04-20T06:18:22.275Z,3.60
2023-04-20T06:20:51.409Z,3.35
2023-04-20T06:23:19.274Z,2.95
2023-04-20T06:25:47.091Z,2.97
2023-04-20T06:28:14.913Z,3.28
2023-04-20T06:30:42.657Z,2.35
2023-04-20T06:33:13.828Z,3.05
2023-04-20T06:35:41.591Z,2.80
2023-04-20T06:38:10.911Z,2.60
2023-04-20T06:40:38.675Z,2.20
2023-04-20T06:43:06.481Z,2.50
2023-04-20T06:45:34.396Z,2.47
2023-04-20T06:48:02.291Z,2.60
2023-04-20T06:50:30.230Z,2.72
2023-04-20T06:52:58.023Z,2.78
2023-04-20T06:55:27.310Z,2.95
2023-04-20T06:57:55.173Z,3.45
2023-04-20T07:00:23.176Z,3.38
2023-04-20T07:02:52.075Z,3.40
2023-04-20T07:05:20.249Z,4.20
2023-04-20T07:07:48.035Z,3.97
2023-04-20T07:10:16.731Z,3.70
2023-04-20T07:12:46.216Z,3.72
2023-04-20T07:15:14.427Z,3.60
2023-04-20T07:17:42.310Z,3.95
2023-04-20T07:20:11.001Z,4.10
2023-04-20T07:22:39.863Z,3.97
2023-04-20T07:25:09.396Z,5.32
2023-04-20T07:27:38.107Z,3.90
2023-04-20T07:30:10.444Z,4.20
2023-04-20T07:32:39.730Z,4.03
2023-04-20T07:35:08.350Z,4.25
2023-04-20T07:37:36.402Z,4.32
2023-04-20T07:40:06.451Z,4.72
2023-04-20T07:42:34.901Z,5.03
2023-04-20T07:45:02.760Z,4.70
2023-04-20T07:47:31.867Z,4.85
2023-04-20T07:49:59.658Z,4.90
2023-04-20T07:52:27.501Z,4.60
2023-04-20T07:54:57.869Z,4.82
2023-04-20T07:57:26.034Z,4.88
2023-04-20T07:59:54.051Z,4.90
2023-04-20T08:02:21.977Z,4.53
2023-04-20T08:04:51.723Z,4.20
2023-04-20T08:07:20.039Z,3.75
2023-04-20T08:09:48.216Z,4.10
2023-04-20T08:12:16.043Z,3.92
2023-04-20T08:14:43.861Z,4.00
2023-04-20T08:17:11.650Z,4.15
2023-04-20T08:19:40.033Z,4.00
2023-04-20T08:22:12.122Z,3.73
2023-04-20T08:24:39.935Z,3.85
2023-04-20T08:27:09.445Z,4.30
2023-04-20T08:29:37.599Z,4.10
2023-04-20T08:32:08.875Z,3.90
2023-04-20T08:34:37.056Z,3.97
2023-04-20T08:37:05.095Z,4.20
2023-04-20T08:39:34.269Z,4.13
2023-04-20T08:42:02.095Z,4.28
2023-04-20T08:44:29.917Z,4.13
2023-04-20T08:46:57.986Z,4.18
2023-04-20T08:49:29.346Z,3.53
2023-04-20T08:51:57.282Z,4.10
2023-04-20T08:54:25.134Z,3.85
2023-04-20T08:56:55.604Z,3.83
2023-04-20T08:59:23.379Z,3.70
2023-04-20T09:01:51.407Z,3.83
2023-04-20T09:04:20.657Z,4.00
2023-04-20T09:06:51.013Z,4.00
2023-04-20T09:09:19.625Z,3.95
2023-04-20T09:11:48.124Z,3.75
2023-04-20T09:14:18.220Z,4.18
2023-04-20T09:16:56.931Z,4.15
2023-04-20T09:19:25.565Z,3.60
2023-04-20T09:21:54.992Z,3.78
2023-04-20T09:24:24.701Z,3.90
2023-04-20T09:26:52.482Z,4.00
2023-04-20T09:29:23.921Z,3.70
2023-04-20T09:31:52.656Z,4.10
2023-04-20T09:34:21.235Z,4.05
2023-04-20T09:36:51.115Z,3.70
2023-04-20T09:39:20.095Z,3.90
2023-04-20T09:41:48.637Z,4.45
2023-04-20T09:44:17.924Z,4.13
2023-04-20T09:46:47.641Z,4.25
2023-04-20T09:49:16.145Z,4.28
2023-04-20T09:51:45.925Z,3.95
2023-04-20T09:54:15.499Z,3.88
2023-04-20T09:56:43.956Z,3.97
2023-04-20T09:59:12.641Z,3.78
2023-04-20T10:01:40.446Z,4.55
2023-04-20T10:04:12.074Z,3.92
2023-04-20T10:06:40.196Z,4.30
2023-04-20T10:09:09.405Z,4.07
2023-04-20T10:11:52.472Z,3.90
2023-04-20T10:14:22.966Z,3.85
2023-04-20T10:17:00.865Z,3.95
2023-04-20T10:19:39.757Z,4.32
2023-04-20T10:22:08.807Z,4.05
2023-04-20T10:24:38.090Z,4.18
2023-04-20T10:27:16.907Z,3.75
2023-04-20T10:29:44.728Z,3.80
2023-04-20T10:32:23.880Z,3.90
2023-04-20T10:35:04.634Z,4.13
2023-04-20T10:37:32.537Z,4.15
2023-04-20T10:40:00.878Z,4.13
2023-04-20T10:42:29.441Z,3.72
2023-04-20T10:44:57.276Z,3.80
2023-04-20T10:47:28.727Z,4.38
2023-04-20T10:50:06.441Z,3.88
2023-04-20T10:52:36.475Z,4.57
2023-04-20T10:55:04.594Z,3.97
2023-04-20T10:57:32.420Z,3.92
2023-04-20T11:00:00.235Z,4.10
2023-04-20T11:02:28.859Z,4.20
2023-04-20T11:05:00.882Z,3.83
2023-04-20T11:07:28.769Z,4.40
2023-04-20T11:09:57.956Z,4.07
2023-04-20T11:12:25.861Z,3.95
2023-04-20T11:14:55.353Z,3.58
2023-04-20T11:17:33.366Z,3.90
2023-04-20T11:20:10.898Z,3.83
2023-04-20T11:22:39.430Z,4.07
2023-04-20T11:25:10.695Z,3.85
2023-04-20T11:27:39.665Z,4.20
2023-04-20T11:30:09.883Z,3.95
2023-04-20T11:32:38.214Z,3.85
2023-04-20T11:35:08.594Z,3.72
2023-04-20T11:37:47.739Z,3.75
2023-04-20T11:40:16.987Z,3.40
2023-04-20T11:42:46.174Z,3.58
2023-04-20T11:45:13.962Z,3.60
2023-04-20T11:47:41.859Z,3.58
2023-04-20T11:50:10.261Z,3.58
2023-04-20T11:52:38.161Z,3.70
2023-04-20T11:55:06.986Z,3.83
2023-04-20T11:57:36.099Z,3.88
2023-04-20T12:00:04.394Z,3.80
2023-04-20T12:02:41.650Z,3.55
2023-04-20T12:05:10.989Z,3.97
2023-04-20T12:07:38.976Z,3.90
2023-04-20T12:10:08.360Z,3.53
2023-04-20T12:12:38.596Z,3.60
2023-04-20T12:15:07.517Z,3.10
2023-04-20T12:17:35.302Z,3.22
2023-04-20T12:20:05.084Z,3.80
2023-04-20T12:22:32.820Z,3.38
2023-04-20T12:25:00.602Z,3.50
2023-04-20T12:27:28.744Z,3.60
2023-04-20T12:29:57.905Z,3.47
2023-04-20T12:32:25.669Z,3.53
2023-04-20T12:34:53.555Z,3.70
2023-04-20T12:37:21.319Z,3.58
2023-04-20T12:39:49.072Z,3.47
2023-04-20T12:42:16.927Z,3.65
2023-04-20T12:44:44.830Z,3.03
2023-04-20T12:47:14.426Z,3.70
2023-04-20T12:49:42.181Z,3.92
2023-04-20T12:52:09.942Z,3.50
2023-04-20T12:54:37.718Z,3.90
2023-04-20T12:57:05.544Z,4.20
2023-04-20T12:59:33.295Z,3.85
2023-04-20T13:02:01.071Z,3.80
2023-04-20T13:04:30.348Z,3.92
2023-04-20T13:06:58.250Z,3.90
2023-04-20T13:09:27.099Z,3.80
2023-04-20T13:11:54.885Z,3.58
2023-04-20T13:14:22.779Z,3.33
2023-04-20T13:16:51.749Z,3.60
2023-04-20T13:19:20.950Z,3.38
2023-04-20T13:21:50.083Z,3.58
2023-04-20T13:24:18.021Z,3.63
2023-04-20T13:26:45.991Z,3.72
2023-04-20T13:29:13.857Z,3.30
2023-04-20T13:31:41.654Z,3.40
2023-04-20T13:34:09.484Z,3.30
2023-04-20T13:36:37.250Z,3.17
2023-04-20T13:39:06.452Z,3.30
2023-04-20T13:41:34.213Z,3.35
2023-04-20T13:44:02.077Z,3.40
2023-04-20T13:46:30.623Z,3.80
2023-04-20T13:48:58.587Z,3.90
2023-04-20T13:51:26.854Z,3.45
2023-04-20T13:53:54.594Z,3.60
2023-04-20T13:56:24.109Z,3.40
2023-04-20T13:58:52.261Z,3.65
2023-04-20T14:01:20.091Z,3.40
2023-04-20T14:03:48.014Z,3.30
2023-04-20T14:06:15.822Z,3.30
2023-04-20T14:08:43.847Z,3.15
2023-04-20T14:11:11.726Z,3.40
2023-04-20T14:13:41.238Z,3.60
2023-04-20T14:16:10.787Z,3.33
2023-04-20T14:18:39.058Z,3.20
2023-04-20T14:21:07.068Z,3.20
2023-04-20T14:23:34.901Z,3.55
2023-04-20T14:26:03.847Z,3.33
2023-04-20T14:28:33.219Z,3.15
2023-04-20T14:31:03.509Z,3.25
2023-04-20T14:33:31.328Z,2.92
2023-04-20T14:35:59.083Z,2.90
2023-04-20T14:38:27.215Z,2.80
2023-04-20T14:40:54.986Z,2.60
2023-04-20T14:43:23.034Z,3.67
2023-04-20T14:45:51.130Z,3.50
2023-04-20T14:48:20.269Z,3.60
2023-04-20T14:50:48.132Z,3.63
2023-04-20T14:53:15.947Z,3.33
2023-04-20T14:55:43.733Z,3.20
2023-04-20T14:58:11.529Z,3.40
2023-04-20T15:00:39.328Z,3.42
2023-04-20T15:03:07.267Z,3.20
2023-04-20T15:05:37.070Z,3.08
2023-04-20T15:08:05.459Z,3.20
2023-04-20T15:10:33.233Z,3.58
2023-04-20T15:13:01.007Z,3.20
2023-04-20T15:15:34.690Z,3.35
2023-04-20T15:18:05.768Z,3.10
2023-04-20T15:20:34.017Z,3.30
2023-04-20T15:23:03.131Z,2.97
2023-04-20T15:25:31.601Z,3.50
2023-04-20T15:27:59.360Z,2.92
2023-04-20T15:30:27.129Z,3.20
2023-04-20T15:32:54.969Z,3.17
2023-04-20T15:35:22.941Z,3.08
2023-04-20T15:37:50.730Z,2.97
2023-04-20T15:40:21.392Z,2.90
2023-04-20T15:42:49.475Z,3.17
2023-04-20T15:45:17.395Z,3.05
2023-04-20T15:47:45.765Z,2.78
2023-04-20T15:50:13.899Z,3.33
2023-04-20T15:52:41.732Z,3.47
2023-04-20T15:55:11.522Z,3.30
2023-04-20T15:57:41.316Z,3.00
2023-04-20T16:00:11.739Z,3.20
2023-04-20T16:02:40.689Z,3.45
2023-04-20T16:05:09.426Z,3.35
2023-04-20T16:07:37.280Z,3.72
2023-04-20T16:10:06.590Z,3.38
2023-04-20T16:12:34.449Z,3.53
2023-04-20T16:15:04.625Z,3.58
2023-04-20T16:17:32.414Z,4.00
2023-04-20T16:20:00.180Z,4.07
2023-04-20T16:22:27.927Z,4.38
2023-04-20T16:24:55.693Z,4.20
2023-04-20T16:27:23.737Z,4.30
2023-04-20T16:29:51.514Z,4.22
2023-04-20T16:32:20.847Z,4.13
2023-04-20T16:34:49.043Z,4.50
2023-04-20T16:37:16.902Z,4.38
2023-04-20T16:39:45.007Z,4.80
2023-04-20T16:42:13.188Z,3.90
2023-04-20T16:44:41.911Z,4.05
2023-04-20T16:47:10.031Z,4.50
2023-04-20T16:49:39.277Z,4.10
2023-04-20T16:52:08.603Z,4.20
2023-04-20T16:54:36.419Z,4.03
2023-04-20T16:57:04.582Z,4.22
2023-04-20T16:59:32.458Z,4.18
2023-04-20T17:02:00.569Z,4.00
2023-04-20T17:04:29.189Z,4.03
2023-04-20T17:06:58.380Z,4.10
2023-04-20T17:09:26.279Z,3.90
2023-04-20T17:11:54.168Z,3.83
2023-04-20T17:14:22.107Z,3.80
2023-04-20T17:16:50.960Z,4.13
2023-04-20T17:19:19.559Z,4.28
2023-04-20T17:21:47.903Z,4.20
2023-04-20T17:24:17.498Z,3.55
2023-04-20T17:26:46.308Z,4.38
2023-04-20T17:29:14.502Z,4.00
2023-04-20T17:31:42.493Z,4.00
2023-04-20T17:34:10.509Z,4.28
2023-04-20T17:36:38.485Z,4.05
2023-04-20T17:39:06.885Z,3.97
2023-04-20T17:41:36.214Z,4.60
2023-04-20T17:44:04.111Z,4.30
2023-04-20T17:46:32.036Z,4.10
2023-04-20T17:48:59.967Z,4.35
2023-04-20T17:51:27.934Z,4.85
2023-04-20T17:53:55.833Z,5.18
2023-04-20T17:56:23.722Z,5.50
2023-04-20T17:58:53.293Z,5.45
2023-04-20T18:01:21.167Z,6.55
2023-04-20T18:03:49.977Z,5.68
2023-04-20T18:06:17.925Z,5.40
2023-04-20T18:08:46.514Z,6.18
2023-04-20T18:11:14.701Z,5.82
2023-04-20T18:13:42.627Z,5.90
2023-04-20T18:16:11.866Z,6.28
2023-04-20T18:18:39.789Z,5.78
2023-04-20T18:21:07.711Z,5.47
2023-04-20T18:23:35.617Z,5.63
2023-04-20T18:26:03.518Z,6.03
2023-04-20T18:28:31.373Z,5.93
2023-04-20T18:31:00.943Z,5.68
2023-04-20T18:33:30.292Z,6.28
2023-04-20T18:35:58.274Z,5.97
2023-04-20T18:38:26.662Z,6.60
2023-04-20T18:40:54.537Z,6.40
2023-04-20T18:43:22.366Z,6.55
2023-04-20T18:45:50.489Z,7.30
2023-04-20T18:48:18.383Z,7.90
2023-04-20T18:50:48.159Z,8.20
2023-04-20T18:53:16.218Z,7.80
2023-04-20T18:55:44.056Z,8.40
2023-04-20T18:58:11.909Z,8.05
2023-04-20T19:00:39.781Z,8.02
2023-04-20T19:03:07.946Z,7.85
2023-04-20T19:05:35.967Z,8.63
2023-04-20T19:08:05.324Z,8.55
2023-04-20T19:10:33.175Z,8.77
2023-04-20T19:13:01.134Z,8.70
2023-04-20T19:15:29.016Z,9.00
2023-04-20T19:17:57.465Z,8.65
2023-04-20T19:20:26.054Z,8.88
2023-04-20T19:22:54.008Z,8.32
2023-04-20T19:25:23.311Z,8.43
2023-04-20T19:27:51.211Z,7.80
2023-04-20T19:30:19.062Z,8.20
2023-04-20T19:32:47.189Z,8.00
2023-04-20T19:35:15.144Z,8.70
2023-04-20T19:37:42.994Z,8.10
2023-04-20T19:40:11.191Z,8.57
2023-04-20T19:42:42.308Z,8.38
2023-04-20T19:45:10.605Z,9.02
2023-04-20T19:47:38.648Z,9.20
2023-04-20T19:50:07.758Z,8.55
2023-04-20T19:52:36.016Z,8.55
2023-04-20T19:55:05.478Z,8.20
2023-04-20T19:57:33.325Z,9.07
2023-04-20T20:00:04.651Z,9.40
2023-04-20T20:02:41.154Z,9.65
2023-04-20T20:05:09.610Z,8.70
2023-04-20T20:07:37.774Z,8.45
2023-04-20T20:10:06.375Z,8.98
2023-04-20T20:12:34.437Z,9.00
2023-04-20T20:15:04.590Z,9.10
2023-04-20T20:17:32.650Z,9.10
2023-04-20T20:20:01.849Z,9.35
2023-04-20T20:22:29.814Z,9.13
2023-04-20T20:24:57.645Z,9.48
2023-04-20T20:27:25.857Z,9.20
2023-04-20T20:29:53.694Z,10.20
2023-04-20T20:32:23.003Z,10.07
2023-04-20T20:34:52.519Z,10.73
2023-04-20T20:37:20.982Z,9.90
2023-04-20T20:39:49.062Z,10.02
2023-04-20T20:42:16.958Z,9.65
2023-04-20T20:44:44.900Z,10.40
2023-04-20T20:47:12.778Z,9.95
2023-04-20T20:49:41.992Z,9.52
2023-04-20T20:52:09.841Z,9.38
2023-04-20T20:54:37.744Z,9.68
2023-04-20T20:57:05.660Z,9.65
2023-04-20T20:59:33.543Z,9.48
2023-04-20T21:02:01.875Z,9.90
2023-04-20T21:04:30.170Z,9.20
2023-04-20T21:06:59.375Z,9.25
2023-04-20T21:09:27.583Z,9.70
2023-04-20T21:11:56.461Z,9.63
2023-04-20T21:14:24.394Z,10.85
2023-04-20T21:16:52.355Z,10.38
2023-04-20T21:19:20.577Z,10.07
2023-04-20T21:21:48.743Z,9.55
2023-04-20T21:24:17.909Z,9.75
2023-04-20T21:26:46.409Z,9.40
2023-04-20T21:29:14.251Z,9.75
2023-04-20T21:31:42.195Z,9.23
2023-04-20T21:34:10.186Z,10.07
2023-04-20T21:36:38.027Z,9.85
2023-04-20T21:39:05.858Z,9.30
2023-04-20T21:41:35.045Z,10.13
2023-04-20T21:44:03.202Z,10.05
2023-04-20T21:46:31.130Z,9.98
2023-04-20T21:48:59.080Z,9.55
2023-04-20T21:51:27.750Z,9.30
2023-04-20T21:53:55.623Z,9.38
2023-04-20T21:56:23.457Z,9.38
2023-04-20T21:58:52.753Z,9.23
